sensor_id;sensor_type;location;lat;lon;timestamp;P1;durP1;ratioP1;P2;durP2;ratioP2
44165;SDS011;30476;53.468;9.826;2022-09-28T00:01:06;3.63;;;3.33;;
44165;SDS011;30476;53.468;9.826;2022-09-28T00:03:34;7.23;;;4.20;;
44165;SDS011;30476;53.468;9.826;2022-09-28T00:06:01;3.90;;;3.60;;
44165;SDS011;30476;53.468;9.826;2022-09-28T00:08:29;3.70;;;3.50;;
44165;SDS011;30476;53.468;9.826;2022-09-28T00:10:55;3.67;;;3.37;;
44165;SDS011;30476;53.468;9.826;2022-09-28T00:13:22;4.17;;;3.83;;
44165;SDS011;30476;53.468;9.826;2022-09-28T00:16:05;3.97;;;3.67;;
44165;SDS011;30476;53.468;9.826;2022-09-28T00:18:32;3.93;;;3.63;;
44165;SDS011;30476;53.468;9.826;2022-09-28T00:21:09;3.70;;;3.40;;
44165;SDS011;30476;53.468;9.826;2022-09-28T00:23:37;4.30;;;4.00;;
44165;SDS011;30476;53.468;9.826;2022-09-28T00:26:24;3.93;;;3.50;;
44165;SDS011;30476;53.468;9.826;2022-09-28T00:28:55;4.30;;;3.67;;
44165;SDS011;30476;53.468;9.826;2022-09-28T00:31:23;3.67;;;3.47;;
44165;SDS011;30476;53.468;9.826;2022-09-28T00:33:51;4.33;;;4.03;;
44165;SDS011;30476;53.468;9.826;2022-09-28T00:36:18;4.03;;;3.73;;
44165;SDS011;30476;53.468;9.826;2022-09-28T00:38:44;4.80;;;4.40;;
44165;SDS011;30476;53.468;9.826;2022-09-28T00:41:10;3.90;;;3.57;;
44165;SDS011;30476;53.468;9.826;2022-09-28T00:43:36;3.87;;;3.50;;
44165;SDS011;30476;53.468;9.826;2022-09-28T00:46:07;4.07;;;3.60;;
44165;SDS011;30476;53.468;9.826;2022-09-28T00:48:38;4.27;;;3.97;;
44165;SDS011;30476;53.468;9.826;2022-09-28T00:51:09;4.27;;;3.97;;
44165;SDS011;30476;53.468;9.826;2022-09-28T00:53:36;4.40;;;4.10;;
44165;SDS011;30476;53.468;9.826;2022-09-28T00:56:08;4.57;;;4.17;;
44165;SDS011;30476;53.468;9.826;2022-09-28T00:58:38;3.97;;;3.67;;
44165;SDS011;30476;53.468;9.826;2022-09-28T01:01:14;3.83;;;3.53;;
44165;SDS011;30476;53.468;9.826;2022-09-28T01:03:40;4.43;;;4.03;;
44165;SDS011;30476;53.468;9.826;2022-09-28T01:06:09;5.00;;;4.60;;
44165;SDS011;30476;53.468;9.826;2022-09-28T01:08:41;4.37;;;4.00;;
44165;SDS011;30476;53.468;9.826;2022-09-28T01:11:08;7.00;;;3.97;;
44165;SDS011;30476;53.468;9.826;2022-09-28T01:13:34;4.07;;;3.77;;
44165;SDS011;30476;53.468;9.826;2022-09-28T01:16:04;4.00;;;3.60;;
44165;SDS011;30476;53.468;9.826;2022-09-28T01:29:17;4.23;;;3.83;;
44165;SDS011;30476;53.468;9.826;2022-09-28T01:32:46;6.13;;;5.07;;
44165;SDS011;30476;53.468;9.826;2022-09-28T01:35:11;4.63;;;4.27;;
44165;SDS011;30476;53.468;9.826;2022-09-28T01:37:51;5.43;;;4.37;;
44165;SDS011;30476;53.468;9.826;2022-09-28T01:40:21;4.67;;;4.27;;
44165;SDS011;30476;53.468;9.826;2022-09-28T01:42:52;6.57;;;5.40;;
44165;SDS011;30476;53.468;9.826;2022-09-28T01:45:25;5.23;;;4.73;;
44165;SDS011;30476;53.468;9.826;2022-09-28T01:47:55;5.77;;;4.77;;
44165;SDS011;30476;53.468;9.826;2022-09-28T01:50:27;5.07;;;4.67;;
44165;SDS011;30476;53.468;9.826;2022-09-28T01:52:59;4.87;;;4.47;;
44165;SDS011;30476;53.468;9.826;2022-09-28T01:55:41;5.27;;;4.77;;
44165;SDS011;30476;53.468;9.826;2022-09-28T01:58:14;6.87;;;5.50;;
44165;SDS011;30476;53.468;9.826;2022-09-28T02:00:53;6.23;;;5.63;;
44165;SDS011;30476;53.468;9.826;2022-09-28T02:03:24;6.93;;;5.80;;
44165;SDS011;30476;53.468;9.826;2022-09-28T02:06:05;6.27;;;5.60;;
44165;SDS011;30476;53.468;9.826;2022-09-28T02:08:44;10.20;;;5.93;;
44165;SDS011;30476;53.468;9.826;2022-09-28T02:11:15;6.03;;;5.60;;
44165;SDS011;30476;53.468;9.826;2022-09-28T02:13:48;11.20;;;6.00;;
44165;SDS011;30476;53.468;9.826;2022-09-28T02:16:24;8.10;;;5.27;;
44165;SDS011;30476;53.468;9.826;2022-09-28T02:18:58;6.73;;;5.97;;
44165;SDS011;30476;53.468;9.826;2022-09-28T02:21:26;6.43;;;5.70;;
44165;SDS011;30476;53.468;9.826;2022-09-28T02:24:02;6.37;;;5.77;;
44165;SDS011;30476;53.468;9.826;2022-09-28T02:26:35;7.80;;;6.30;;
44165;SDS011;30476;53.468;9.826;2022-09-28T02:29:05;6.27;;;5.70;;
44165;SDS011;30476;53.468;9.826;2022-09-28T02:31:31;9.20;;;6.73;;
44165;SDS011;30476;53.468;9.826;2022-09-28T02:33:56;7.63;;;5.43;;
44165;SDS011;30476;53.468;9.826;2022-09-28T02:36:24;10.03;;;7.50;;
44165;SDS011;30476;53.468;9.826;2022-09-28T02:38:53;7.53;;;6.43;;
44165;SDS011;30476;53.468;9.826;2022-09-28T02:44:08;8.30;;;6.80;;
44165;SDS011;30476;53.468;9.826;2022-09-28T02:55:19;7.90;;;7.10;;
44165;SDS011;30476;53.468;9.826;2022-09-28T03:01:25;9.00;;;7.43;;
44165;SDS011;30476;53.468;9.826;2022-09-28T03:03:40;7.83;;;6.87;;
44165;SDS011;30476;53.468;9.826;2022-09-28T03:06:32;9.10;;;7.77;;
44165;SDS011;30476;53.468;9.826;2022-09-28T03:09:21;8.70;;;7.20;;
44165;SDS011;30476;53.468;9.826;2022-09-28T03:11:52;9.47;;;8.00;;
44165;SDS011;30476;53.468;9.826;2022-09-28T03:14:25;10.23;;;7.73;;
44165;SDS011;30476;53.468;9.826;2022-09-28T03:16:50;9.47;;;7.70;;
44165;SDS011;30476;53.468;9.826;2022-09-28T03:19:17;9.60;;;6.97;;
44165;SDS011;30476;53.468;9.826;2022-09-28T03:21:47;7.80;;;7.00;;
44165;SDS011;30476;53.468;9.826;2022-09-28T03:24:14;10.10;;;8.07;;
44165;SDS011;30476;53.468;9.826;2022-09-28T03:26:39;9.30;;;7.77;;
44165;SDS011;30476;53.468;9.826;2022-09-28T03:29:05;8.30;;;7.50;;
44165;SDS011;30476;53.468;9.826;2022-09-28T03:31:31;7.40;;;6.70;;
44165;SDS011;30476;53.468;9.826;2022-09-28T03:33:57;8.63;;;6.80;;
44165;SDS011;30476;53.468;9.826;2022-09-28T03:36:23;9.57;;;7.53;;
44165;SDS011;30476;53.468;9.826;2022-09-28T03:38:50;9.93;;;7.83;;
44165;SDS011;30476;53.468;9.826;2022-09-28T03:41:19;8.77;;;7.13;;
44165;SDS011;30476;53.468;9.826;2022-09-28T03:43:46;7.70;;;6.90;;
44165;SDS011;30476;53.468;9.826;2022-09-28T03:46:11;6.57;;;5.97;;
44165;SDS011;30476;53.468;9.826;2022-09-28T03:48:38;8.00;;;7.20;;
44165;SDS011;30476;53.468;9.826;2022-09-28T03:51:05;9.00;;;7.60;;
44165;SDS011;30476;53.468;9.826;2022-09-28T03:53:33;8.63;;;7.73;;
44165;SDS011;30476;53.468;9.826;2022-09-28T03:56:04;9.37;;;7.10;;
44165;SDS011;30476;53.468;9.826;2022-09-28T03:58:36;8.63;;;7.73;;
44165;SDS011;30476;53.468;9.826;2022-09-28T04:01:02;6.70;;;6.10;;
44165;SDS011;30476;53.468;9.826;2022-09-28T04:03:30;12.50;;;8.07;;
44165;SDS011;30476;53.468;9.826;2022-09-28T04:05:56;7.70;;;6.53;;
44165;SDS011;30476;53.468;9.826;2022-09-28T04:08:22;7.37;;;6.53;;
44165;SDS011;30476;53.468;9.826;2022-09-28T04:10:48;7.93;;;7.00;;
44165;SDS011;30476;53.468;9.826;2022-09-28T04:13:14;11.00;;;8.17;;
44165;SDS011;30476;53.468;9.826;2022-09-28T04:15:40;12.10;;;8.43;;
44165;SDS011;30476;53.468;9.826;2022-09-28T04:18:10;11.00;;;8.10;;
44165;SDS011;30476;53.468;9.826;2022-09-28T04:20:37;12.30;;;9.13;;
44165;SDS011;30476;53.468;9.826;2022-09-28T04:23:05;10.67;;;8.07;;
44165;SDS011;30476;53.468;9.826;2022-09-28T04:25:31;8.63;;;7.07;;
44165;SDS011;30476;53.468;9.826;2022-09-28T04:27:57;12.77;;;8.90;;
44165;SDS011;30476;53.468;9.826;2022-09-28T04:30:41;10.67;;;8.57;;
44165;SDS011;30476;53.468;9.826;2022-09-28T04:33:07;11.00;;;8.37;;
44165;SDS011;30476;53.468;9.826;2022-09-28T04:35:33;10.10;;;8.93;;
44165;SDS011;30476;53.468;9.826;2022-09-28T04:37:59;11.37;;;8.67;;
44165;SDS011;30476;53.468;9.826;2022-09-28T04:40:25;13.90;;;9.60;;
44165;SDS011;30476;53.468;9.826;2022-09-28T04:42:54;10.40;;;7.90;;
44165;SDS011;30476;53.468;9.826;2022-09-28T04:45:21;11.67;;;9.40;;
44165;SDS011;30476;53.468;9.826;2022-09-28T04:47:47;28.20;;;25.97;;
44165;SDS011;30476;53.468;9.826;2022-09-28T04:50:13;15.33;;;13.83;;
44165;SDS011;30476;53.468;9.826;2022-09-28T04:52:39;13.23;;;10.17;;
44165;SDS011;30476;53.468;9.826;2022-09-28T04:55:05;13.47;;;10.67;;
44165;SDS011;30476;53.468;9.826;2022-09-28T04:57:34;10.40;;;8.60;;
44165;SDS011;30476;53.468;9.826;2022-09-28T05:00:00;12.10;;;9.20;;
44165;SDS011;30476;53.468;9.826;2022-09-28T05:02:26;10.67;;;8.80;;
44165;SDS011;30476;53.468;9.826;2022-09-28T05:04:53;14.63;;;8.40;;
44165;SDS011;30476;53.468;9.826;2022-09-28T05:07:20;13.03;;;9.33;;
44165;SDS011;30476;53.468;9.826;2022-09-28T05:09:46;10.60;;;8.30;;
44165;SDS011;30476;53.468;9.826;2022-09-28T05:12:12;9.93;;;8.73;;
44165;SDS011;30476;53.468;9.826;2022-09-28T05:14:38;12.77;;;9.53;;
44165;SDS011;30476;53.468;9.826;2022-09-28T05:17:03;11.07;;;9.77;;
44165;SDS011;30476;53.468;9.826;2022-09-28T05:19:29;11.27;;;9.00;;
44165;SDS011;30476;53.468;9.826;2022-09-28T05:21:55;12.20;;;9.80;;
44165;SDS011;30476;53.468;9.826;2022-09-28T05:24:22;16.57;;;9.77;;
44165;SDS011;30476;53.468;9.826;2022-09-28T05:26:48;15.47;;;10.17;;
44165;SDS011;30476;53.468;9.826;2022-09-28T05:29:14;14.33;;;9.03;;
44165;SDS011;30476;53.468;9.826;2022-09-28T05:31:40;13.13;;;8.53;;
44165;SDS011;30476;53.468;9.826;2022-09-28T05:34:05;11.90;;;9.70;;
44165;SDS011;30476;53.468;9.826;2022-09-28T05:36:31;12.63;;;9.10;;
44165;SDS011;30476;53.468;9.826;2022-09-28T05:38:57;13.10;;;10.33;;
44165;SDS011;30476;53.468;9.826;2022-09-28T05:41:23;10.30;;;8.20;;
44165;SDS011;30476;53.468;9.826;2022-09-28T05:43:49;11.10;;;8.17;;
44165;SDS011;30476;53.468;9.826;2022-09-28T05:46:16;12.40;;;8.87;;
44165;SDS011;30476;53.468;9.826;2022-09-28T05:48:42;11.70;;;9.70;;
44165;SDS011;30476;53.468;9.826;2022-09-28T05:51:08;10.67;;;8.73;;
44165;SDS011;30476;53.468;9.826;2022-09-28T05:53:34;12.07;;;9.20;;
44165;SDS011;30476;53.468;9.826;2022-09-28T05:56:00;12.57;;;9.20;;
44165;SDS011;30476;53.468;9.826;2022-09-28T05:58:26;14.93;;;8.40;;
44165;SDS011;30476;53.468;9.826;2022-09-28T06:00:53;14.80;;;10.90;;
44165;SDS011;30476;53.468;9.826;2022-09-28T06:03:20;11.30;;;9.20;;
44165;SDS011;30476;53.468;9.826;2022-09-28T06:05:46;14.40;;;9.60;;
44165;SDS011;30476;53.468;9.826;2022-09-28T06:08:12;15.80;;;8.90;;
44165;SDS011;30476;53.468;9.826;2022-09-28T06:10:38;18.23;;;10.40;;
44165;SDS011;30476;53.468;9.826;2022-09-28T06:13:05;14.73;;;8.87;;
44165;SDS011;30476;53.468;9.826;2022-09-28T06:15:32;12.33;;;8.83;;
44165;SDS011;30476;53.468;9.826;2022-09-28T06:18:03;11.50;;;8.70;;
44165;SDS011;30476;53.468;9.826;2022-09-28T06:20:32;12.40;;;9.93;;
44165;SDS011;30476;53.468;9.826;2022-09-28T06:23:00;16.30;;;9.90;;
44165;SDS011;30476;53.468;9.826;2022-09-28T06:25:26;10.90;;;8.47;;
44165;SDS011;30476;53.468;9.826;2022-09-28T06:28:05;10.40;;;8.80;;
44165;SDS011;30476;53.468;9.826;2022-09-28T06:30:34;14.27;;;9.20;;
44165;SDS011;30476;53.468;9.826;2022-09-28T06:33:02;15.80;;;9.67;;
44165;SDS011;30476;53.468;9.826;2022-09-28T06:35:30;14.80;;;9.60;;
44165;SDS011;30476;53.468;9.826;2022-09-28T06:37:56;14.87;;;10.20;;
44165;SDS011;30476;53.468;9.826;2022-09-28T06:40:23;12.63;;;8.70;;
44165;SDS011;30476;53.468;9.826;2022-09-28T06:43:00;13.23;;;8.47;;
44165;SDS011;30476;53.468;9.826;2022-09-28T06:45:28;17.20;;;9.33;;
44165;SDS011;30476;53.468;9.826;2022-09-28T06:47:58;11.60;;;9.23;;
44165;SDS011;30476;53.468;9.826;2022-09-28T06:50:25;16.60;;;10.57;;
44165;SDS011;30476;53.468;9.826;2022-09-28T06:52:55;13.97;;;9.83;;
44165;SDS011;30476;53.468;9.826;2022-09-28T06:55:21;13.97;;;9.97;;
44165;SDS011;30476;53.468;9.826;2022-09-28T06:57:47;15.13;;;10.03;;
44165;SDS011;30476;53.468;9.826;2022-09-28T07:00:25;12.23;;;9.27;;
44165;SDS011;30476;53.468;9.826;2022-09-28T07:02:52;15.50;;;10.13;;
44165;SDS011;30476;53.468;9.826;2022-09-28T07:05:17;13.53;;;10.70;;
44165;SDS011;30476;53.468;9.826;2022-09-28T07:07:45;13.03;;;10.10;;
44165;SDS011;30476;53.468;9.826;2022-09-28T07:10:11;23.33;;;10.70;;
44165;SDS011;30476;53.468;9.826;2022-09-28T07:12:37;15.97;;;10.63;;
44165;SDS011;30476;53.468;9.826;2022-09-28T07:15:05;15.87;;;11.67;;
44165;SDS011;30476;53.468;9.826;2022-09-28T07:17:31;17.07;;;11.73;;
44165;SDS011;30476;53.468;9.826;2022-09-28T07:19:59;21.60;;;12.23;;
44165;SDS011;30476;53.468;9.826;2022-09-28T07:22:25;15.37;;;10.63;;
44165;SDS011;30476;53.468;9.826;2022-09-28T07:24:50;15.40;;;10.80;;
44165;SDS011;30476;53.468;9.826;2022-09-28T07:27:16;14.67;;;11.13;;
44165;SDS011;30476;53.468;9.826;2022-09-28T07:29:42;16.20;;;11.23;;
44165;SDS011;30476;53.468;9.826;2022-09-28T07:32:08;15.50;;;11.03;;
44165;SDS011;30476;53.468;9.826;2022-09-28T07:34:34;16.80;;;12.13;;
44165;SDS011;30476;53.468;9.826;2022-09-28T07:37:08;17.53;;;11.83;;
44165;SDS011;30476;53.468;9.826;2022-09-28T07:39:36;15.63;;;12.20;;
44165;SDS011;30476;53.468;9.826;2022-09-28T07:42:22;14.90;;;11.30;;
44165;SDS011;30476;53.468;9.826;2022-09-28T07:44:52;15.70;;;11.37;;
44165;SDS011;30476;53.468;9.826;2022-09-28T07:47:18;14.17;;;10.77;;
44165;SDS011;30476;53.468;9.826;2022-09-28T07:49:54;13.97;;;11.27;;
44165;SDS011;30476;53.468;9.826;2022-09-28T07:52:21;27.70;;;12.23;;
44165;SDS011;30476;53.468;9.826;2022-09-28T07:54:53;17.20;;;11.97;;
44165;SDS011;30476;53.468;9.826;2022-09-28T07:57:20;24.50;;;12.83;;
44165;SDS011;30476;53.468;9.826;2022-09-28T07:59:46;15.00;;;10.50;;
44165;SDS011;30476;53.468;9.826;2022-09-28T08:02:14;14.77;;;11.80;;
44165;SDS011;30476;53.468;9.826;2022-09-28T08:04:41;14.80;;;10.83;;
44165;SDS011;30476;53.468;9.826;2022-09-28T08:07:08;12.07;;;9.53;;
44165;SDS011;30476;53.468;9.826;2022-09-28T08:09:35;14.40;;;11.13;;
44165;SDS011;30476;53.468;9.826;2022-09-28T08:12:01;15.50;;;10.70;;
44165;SDS011;30476;53.468;9.826;2022-09-28T08:14:29;13.87;;;10.63;;
44165;SDS011;30476;53.468;9.826;2022-09-28T08:17:00;14.63;;;10.90;;
44165;SDS011;30476;53.468;9.826;2022-09-28T08:19:27;15.67;;;11.53;;
44165;SDS011;30476;53.468;9.826;2022-09-28T08:22:13;15.40;;;10.30;;
44165;SDS011;30476;53.468;9.826;2022-09-28T08:24:39;22.83;;;11.43;;
44165;SDS011;30476;53.468;9.826;2022-09-28T08:27:04;15.77;;;10.77;;
44165;SDS011;30476;53.468;9.826;2022-09-28T08:29:31;18.33;;;11.63;;
44165;SDS011;30476;53.468;9.826;2022-09-28T08:31:57;15.40;;;11.20;;
44165;SDS011;30476;53.468;9.826;2022-09-28T08:34:24;14.37;;;11.20;;
44165;SDS011;30476;53.468;9.826;2022-09-28T08:36:51;14.70;;;10.73;;
44165;SDS011;30476;53.468;9.826;2022-09-28T08:39:17;18.00;;;11.60;;
44165;SDS011;30476;53.468;9.826;2022-09-28T08:44:19;15.67;;;11.60;;
44165;SDS011;30476;53.468;9.826;2022-09-28T08:46:49;17.70;;;12.73;;
44165;SDS011;30476;53.468;9.826;2022-09-28T08:49:28;16.10;;;11.93;;
44165;SDS011;30476;53.468;9.826;2022-09-28T08:52:02;16.70;;;12.83;;
44165;SDS011;30476;53.468;9.826;2022-09-28T09:02:29;18.40;;;12.20;;
44165;SDS011;30476;53.468;9.826;2022-09-28T09:04:58;18.53;;;13.30;;
44165;SDS011;30476;53.468;9.826;2022-09-28T09:07:48;17.03;;;12.13;;
44165;SDS011;30476;53.468;9.826;2022-09-28T09:10:40;19.87;;;13.47;;
44165;SDS011;30476;53.468;9.826;2022-09-28T09:19:21;20.13;;;15.77;;
44165;SDS011;30476;53.468;9.826;2022-09-28T09:21:58;17.63;;;14.17;;
44165;SDS011;30476;53.468;9.826;2022-09-28T09:27:38;18.07;;;14.43;;
44165;SDS011;30476;53.468;9.826;2022-09-28T09:30:08;20.50;;;15.20;;
44165;SDS011;30476;53.468;9.826;2022-09-28T09:35:13;17.63;;;13.60;;
44165;SDS011;30476;53.468;9.826;2022-09-28T09:38:05;15.87;;;12.33;;
44165;SDS011;30476;53.468;9.826;2022-09-28T09:49:37;11.30;;;9.33;;
44165;SDS011;30476;53.468;9.826;2022-09-28T09:54:56;10.03;;;9.03;;
44165;SDS011;30476;53.468;9.826;2022-09-28T10:00:12;13.53;;;11.10;;
44165;SDS011;30476;53.468;9.826;2022-09-28T10:02:40;12.87;;;11.13;;
44165;SDS011;30476;53.468;9.826;2022-09-28T10:10:26;16.57;;;11.53;;
44165;SDS011;30476;53.468;9.826;2022-09-28T10:12:58;13.73;;;11.77;;
44165;SDS011;30476;53.468;9.826;2022-09-28T10:15:25;13.70;;;12.00;;
44165;SDS011;30476;53.468;9.826;2022-09-28T10:18:05;14.80;;;10.47;;
44165;SDS011;30476;53.468;9.826;2022-09-28T10:20:38;11.80;;;10.60;;
44165;SDS011;30476;53.468;9.826;2022-09-28T10:23:08;10.87;;;9.30;;
44165;SDS011;30476;53.468;9.826;2022-09-28T10:25:41;10.73;;;9.73;;
44165;SDS011;30476;53.468;9.826;2022-09-28T10:28:09;10.20;;;9.20;;
44165;SDS011;30476;53.468;9.826;2022-09-28T10:30:43;9.30;;;7.60;;
44165;SDS011;30476;53.468;9.826;2022-09-28T10:35:54;9.37;;;7.00;;
44165;SDS011;30476;53.468;9.826;2022-09-28T10:38:21;7.87;;;6.30;;
44165;SDS011;30476;53.468;9.826;2022-09-28T10:40:57;7.20;;;6.50;;
44165;SDS011;30476;53.468;9.826;2022-09-28T10:43:38;8.20;;;;;
44165;SDS011;30476;53.468;9.826;2022-09-28T10:46:30;7.47;;;6.80;;
44165;SDS011;30476;53.468;9.826;2022-09-28T10:48:59;7.03;;;6.00;;
44165;SDS011;30476;53.468;9.826;2022-09-28T10:51:43;5.80;;;5.23;;
44165;SDS011;30476;53.468;9.826;2022-09-28T10:54:21;6.33;;;5.80;;
44165;SDS011;30476;53.468;9.826;2022-09-28T10:56:50;4.53;;;4.23;;
44165;SDS011;30476;53.468;9.826;2022-09-28T11:04:37;6.40;;;5.30;;
44165;SDS011;30476;53.468;9.826;2022-09-28T11:07:13;4.97;;;4.57;;
44165;SDS011;30476;53.468;9.826;2022-09-28T11:09:48;4.53;;;3.63;;
44165;SDS011;30476;53.468;9.826;2022-09-28T11:12:24;3.30;;;3.10;;
44165;SDS011;30476;53.468;9.826;2022-09-28T11:15:03;3.77;;;3.50;;
44165;SDS011;30476;53.468;9.826;2022-09-28T11:17:35;3.93;;;3.63;;
44165;SDS011;30476;53.468;9.826;2022-09-28T11:22:52;3.70;;;3.43;;
44165;SDS011;30476;53.468;9.826;2022-09-28T11:25:26;4.43;;;4.13;;
44165;SDS011;30476;53.468;9.826;2022-09-28T11:27:54;5.17;;;4.40;;
44165;SDS011;30476;53.468;9.826;2022-09-28T11:32:51;3.83;;;3.57;;
44165;SDS011;30476;53.468;9.826;2022-09-28T11:38:15;6.00;;;5.50;;
44165;SDS011;30476;53.468;9.826;2022-09-28T11:46:07;1.83;;;1.33;;
44165;SDS011;30476;53.468;9.826;2022-09-28T11:48:54;2.57;;;2.37;;
44165;SDS011;30476;53.468;9.826;2022-09-28T11:51:29;3.13;;;2.80;;
44165;SDS011;30476;53.468;9.826;2022-09-28T11:54:00;3.60;;;3.40;;
44165;SDS011;30476;53.468;9.826;2022-09-28T12:02:02;3.10;;;2.90;;
44165;SDS011;30476;53.468;9.826;2022-09-28T12:07:29;3.03;;;2.53;;
44165;SDS011;30476;53.468;9.826;2022-09-28T12:10:07;2.90;;;2.70;;
44165;SDS011;30476;53.468;9.826;2022-09-28T12:12:53;3.10;;;2.90;;
44165;SDS011;30476;53.468;9.826;2022-09-28T12:20:44;4.40;;;3.60;;
44165;SDS011;30476;53.468;9.826;2022-09-28T12:26:00;3.37;;;3.07;;
44165;SDS011;30476;53.468;9.826;2022-09-28T12:28:31;4.40;;;4.10;;
44165;SDS011;30476;53.468;9.826;2022-09-28T12:31:11;3.50;;;3.30;;
44165;SDS011;30476;53.468;9.826;2022-09-28T12:33:44;4.10;;;3.90;;
44165;SDS011;30476;53.468;9.826;2022-09-28T12:47:25;4.67;;;4.40;;
44165;SDS011;30476;53.468;9.826;2022-09-28T12:50:15;4.40;;;4.00;;
44165;SDS011;30476;53.468;9.826;2022-09-28T12:58:25;4.03;;;3.80;;
44165;SDS011;30476;53.468;9.826;2022-09-28T13:01:26;3.90;;;3.60;;
44165;SDS011;30476;53.468;9.826;2022-09-28T13:07:06;4.70;;;4.40;;
44165;SDS011;30476;53.468;9.826;2022-09-28T13:09:50;5.57;;;5.17;;
44165;SDS011;30476;53.468;9.826;2022-09-28T13:15:33;4.13;;;3.83;;
44165;SDS011;30476;53.468;9.826;2022-09-28T13:18:45;4.90;;;4.60;;
44165;SDS011;30476;53.468;9.826;2022-09-28T13:21:08;6.73;;;6.13;;
44165;SDS011;30476;53.468;9.826;2022-09-28T13:24:11;5.70;;;5.17;;
44165;SDS011;30476;53.468;9.826;2022-09-28T13:26:43;6.40;;;5.90;;
44165;SDS011;30476;53.468;9.826;2022-09-28T13:29:12;6.20;;;5.70;;
44165;SDS011;30476;53.468;9.826;2022-09-28T13:31:50;5.07;;;4.70;;
44165;SDS011;30476;53.468;9.826;2022-09-28T13:34:26;5.47;;;5.07;;
44165;SDS011;30476;53.468;9.826;2022-09-28T13:37:07;5.57;;;5.13;;
44165;SDS011;30476;53.468;9.826;2022-09-28T13:39:50;4.83;;;4.50;;
44165;SDS011;30476;53.468;9.826;2022-09-28T13:47:55;5.20;;;4.90;;
44165;SDS011;30476;53.468;9.826;2022-09-28T13:53:40;3.70;;;3.40;;
44165;SDS011;30476;53.468;9.826;2022-09-28T13:56:26;4.73;;;4.30;;
44165;SDS011;30476;53.468;9.826;2022-09-28T14:01:40;3.77;;;3.30;;
44165;SDS011;30476;53.468;9.826;2022-09-28T14:07:54;4.43;;;2.60;;
44165;SDS011;30476;53.468;9.826;2022-09-28T14:09:44;1.87;;;1.77;;
44165;SDS011;30476;53.468;9.826;2022-09-28T14:14:57;3.30;;;3.03;;
44165;SDS011;30476;53.468;9.826;2022-09-28T14:19:54;5.47;;;2.50;;
44165;SDS011;30476;53.468;9.826;2022-09-28T14:27:38;2.00;;;1.90;;
44165;SDS011;30476;53.468;9.826;2022-09-28T14:32:37;3.07;;;2.80;;
44165;SDS011;30476;53.468;9.826;2022-09-28T14:35:28;2.63;;;2.30;;
44165;SDS011;30476;53.468;9.826;2022-09-28T14:38:20;3.13;;;2.93;;
44165;SDS011;30476;53.468;9.826;2022-09-28T14:41:10;2.57;;;2.37;;
44165;SDS011;30476;53.468;9.826;2022-09-28T14:44:00;2.63;;;2.43;;
44165;SDS011;30476;53.468;9.826;2022-09-28T14:46:34;3.17;;;2.97;;
44165;SDS011;30476;53.468;9.826;2022-09-28T14:49:03;4.50;;;4.10;;
44165;SDS011;30476;53.468;9.826;2022-09-28T15:00:02;4.87;;;4.37;;
44165;SDS011;30476;53.468;9.826;2022-09-28T15:02:12;4.57;;;4.17;;
44165;SDS011;30476;53.468;9.826;2022-09-28T15:04:50;5.53;;;4.63;;
44165;SDS011;30476;53.468;9.826;2022-09-28T15:07:27;7.43;;;5.17;;
44165;SDS011;30476;53.468;9.826;2022-09-28T15:09:58;5.63;;;5.13;;
44165;SDS011;30476;53.468;9.826;2022-09-28T15:12:27;6.20;;;5.70;;
44165;SDS011;30476;53.468;9.826;2022-09-28T15:17:29;6.60;;;6.00;;
44165;SDS011;30476;53.468;9.826;2022-09-28T15:22:34;6.37;;;5.50;;
44165;SDS011;30476;53.468;9.826;2022-09-28T15:25:01;8.60;;;7.33;;
44165;SDS011;30476;53.468;9.826;2022-09-28T15:27:37;8.93;;;6.50;;
44165;SDS011;30476;53.468;9.826;2022-09-28T15:30:19;6.33;;;5.73;;
44165;SDS011;30476;53.468;9.826;2022-09-28T15:32:48;8.83;;;8.03;;
44165;SDS011;30476;53.468;9.826;2022-09-28T15:35:17;7.47;;;6.70;;
44165;SDS011;30476;53.468;9.826;2022-09-28T15:37:48;8.80;;;7.80;;
44165;SDS011;30476;53.468;9.826;2022-09-28T15:40:19;8.70;;;7.90;;
44165;SDS011;30476;53.468;9.826;2022-09-28T15:42:53;7.73;;;6.97;;
44165;SDS011;30476;53.468;9.826;2022-09-28T15:45:54;7.33;;;6.63;;
44165;SDS011;30476;53.468;9.826;2022-09-28T15:48:25;8.57;;;7.67;;
44165;SDS011;30476;53.468;9.826;2022-09-28T15:51:08;7.23;;;6.53;;
44165;SDS011;30476;53.468;9.826;2022-09-28T15:53:42;7.90;;;7.10;;
44165;SDS011;30476;53.468;9.826;2022-09-28T15:56:17;8.10;;;7.30;;
44165;SDS011;30476;53.468;9.826;2022-09-28T15:58:42;8.10;;;7.30;;
44165;SDS011;30476;53.468;9.826;2022-09-28T16:01:30;6.47;;;5.83;;
44165;SDS011;30476;53.468;9.826;2022-09-28T16:04:31;7.07;;;6.43;;
44165;SDS011;30476;53.468;9.826;2022-09-28T16:20:23;7.37;;;6.73;;
44165;SDS011;30476;53.468;9.826;2022-09-28T16:22:54;8.80;;;7.03;;
44165;SDS011;30476;53.468;9.826;2022-09-28T16:25:22;7.80;;;7.00;;
44165;SDS011;30476;53.468;9.826;2022-09-28T16:27:50;9.07;;;8.37;;
44165;SDS011;30476;53.468;9.826;2022-09-28T16:30:27;9.67;;;7.27;;
44165;SDS011;30476;53.468;9.826;2022-09-28T16:33:08;11.67;;;10.30;;
44165;SDS011;30476;53.468;9.826;2022-09-28T16:35:53;12.80;;;11.00;;
44165;SDS011;30476;53.468;9.826;2022-09-28T16:38:18;10.47;;;9.37;;
44165;SDS011;30476;53.468;9.826;2022-09-28T16:40:48;10.90;;;9.83;;
44165;SDS011;30476;53.468;9.826;2022-09-28T16:43:22;12.00;;;8.43;;
44165;SDS011;30476;53.468;9.826;2022-09-28T16:45:52;8.47;;;7.77;;
44165;SDS011;30476;53.468;9.826;2022-09-28T16:48:28;10.20;;;7.53;;
44165;SDS011;30476;53.468;9.826;2022-09-28T16:50:56;12.50;;;8.80;;
44165;SDS011;30476;53.468;9.826;2022-09-28T16:53:23;7.87;;;7.17;;
44165;SDS011;30476;53.468;9.826;2022-09-28T16:56:07;8.33;;;7.53;;
44165;SDS011;30476;53.468;9.826;2022-09-28T16:58:34;8.40;;;7.60;;
44165;SDS011;30476;53.468;9.826;2022-09-28T17:01:00;8.27;;;7.47;;
44165;SDS011;30476;53.468;9.826;2022-09-28T17:03:26;10.50;;;8.00;;
44165;SDS011;30476;53.468;9.826;2022-09-28T17:05:53;8.73;;;7.87;;
44165;SDS011;30476;53.468;9.826;2022-09-28T17:08:23;8.03;;;7.23;;
44165;SDS011;30476;53.468;9.826;2022-09-28T17:13:25;9.50;;;8.10;;
44165;SDS011;30476;53.468;9.826;2022-09-28T17:15:58;8.73;;;7.83;;
44165;SDS011;30476;53.468;9.826;2022-09-28T17:18:25;8.77;;;7.87;;
44165;SDS011;30476;53.468;9.826;2022-09-28T17:20:52;8.47;;;7.63;;
44165;SDS011;30476;53.468;9.826;2022-09-28T17:23:21;15.40;;;9.50;;
44165;SDS011;30476;53.468;9.826;2022-09-28T17:25:47;11.10;;;9.60;;
44165;SDS011;30476;53.468;9.826;2022-09-28T17:28:17;11.90;;;9.37;;
44165;SDS011;30476;53.468;9.826;2022-09-28T17:30:46;10.70;;;9.07;;
44165;SDS011;30476;53.468;9.826;2022-09-28T17:33:12;10.73;;;8.77;;
44165;SDS011;30476;53.468;9.826;2022-09-28T17:35:38;12.33;;;9.13;;
44165;SDS011;30476;53.468;9.826;2022-09-28T17:38:06;10.00;;;8.70;;
44165;SDS011;30476;53.468;9.826;2022-09-28T17:40:33;9.73;;;8.30;;
44165;SDS011;30476;53.468;9.826;2022-09-28T17:42:59;10.13;;;9.03;;
44165;SDS011;30476;53.468;9.826;2022-09-28T17:45:25;11.30;;;9.37;;
44165;SDS011;30476;53.468;9.826;2022-09-28T17:47:55;10.80;;;9.70;;
44165;SDS011;30476;53.468;9.826;2022-09-28T17:50:25;14.67;;;10.00;;
44165;SDS011;30476;53.468;9.826;2022-09-28T17:52:54;10.13;;;9.00;;
44165;SDS011;30476;53.468;9.826;2022-09-28T17:55:25;10.97;;;9.60;;
44165;SDS011;30476;53.468;9.826;2022-09-28T17:57:53;14.10;;;10.53;;
44165;SDS011;30476;53.468;9.826;2022-09-28T18:00:20;19.87;;;8.93;;
44165;SDS011;30476;53.468;9.826;2022-09-28T18:02:47;11.47;;;10.10;;
44165;SDS011;30476;53.468;9.826;2022-09-28T18:05:14;12.60;;;10.50;;
44165;SDS011;30476;53.468;9.826;2022-09-28T18:07:40;9.93;;;8.70;;